Time;durP1;ratioP1;P1;durP2;ratioP2;P2;SDS_P1;SDS_P2;PMS_P1;PMS_P2;Temp;Humidity;BMP_temperature;BMP_pressure;BME280_temperature;BME280_humidity;BME280_pressure;Samples;Min_cycle;Max_cycle;Signal;HPM_P1;HPM_P2
2022/02/20 00:01:06;;;;;;;0.70;0.60;;;6.60;99.90;;;;;;4996063;28;20197;-79
2022/02/20 00:03:34;;;;;;;1.98;1.58;;;6.60;99.90;;;;;;4996901;28;20197;-78
2022/02/20 00:06:02;;;;;;;6.93;3.75;;;6.60;99.90;;;;;;4997152;28;20204;-79
2022/02/20 00:08:29;;;;;;;2.05;1.85;;;6.70;99.90;;;;;;4995584;28;20216;-77
2022/02/20 00:10:56;;;;;;;0.50;0.40;;;6.60;99.90;;;;;;4995908;28;20687;-79
2022/02/20 00:13:22;;;;;;;0.65;0.65;;;6.60;99.90;;;;;;4996860;28;20207;-79
2022/02/20 00:15:49;;;;;;;0.80;0.80;;;6.60;99.90;;;;;;4996492;28;20200;-79
2022/02/20 00:18:16;;;;;;;0.90;0.75;;;6.60;99.90;;;;;;4995399;28;20719;-79
2022/02/20 00:20:45;;;;;;;0.50;0.40;;;6.60;99.90;;;;;;4996589;28;20197;-78
2022/02/20 00:23:15;;;;;;;0.85;0.75;;;6.60;99.90;;;;;;4996023;28;20196;-80
2022/02/20 00:25:42;;;;;;;1.30;0.55;;;6.50;99.90;;;;;;4996380;28;20201;-79
2022/02/20 00:28:09;;;;;;;1.00;0.90;;;6.40;99.90;;;;;;4995922;28;20217;-79
2022/02/20 00:30:36;;;;;;;2.00;1.80;;;6.40;99.90;;;;;;4995736;28;20201;-79
2022/02/20 00:33:03;;;;;;;1.60;1.50;;;6.30;99.90;;;;;;4999088;28;20200;-78
2022/02/20 00:35:32;;;;;;;0.50;0.40;;;6.20;99.90;;;;;;5003450;28;20513;-77
2022/02/20 00:38:02;;;;;;;0.50;0.40;;;6.20;99.90;;;;;;5003986;28;20646;-78
2022/02/20 00:40:29;;;;;;;0.50;0.40;;;6.20;99.90;;;;;;5003317;28;20212;-78
2022/02/20 00:42:56;;;;;;;0.70;0.70;;;6.20;99.90;;;;;;5003305;28;20319;-79
2022/02/20 00:45:22;;;;;;;0.50;0.40;;;6.20;99.90;;;;;;5004102;28;20193;-76
2022/02/20 00:47:49;;;;;;;0.50;0.50;;;6.10;99.90;;;;;;5003545;28;20275;-78
2022/02/20 00:50:16;;;;;;;0.50;0.40;;;6.10;99.90;;;;;;5004210;28;20197;-77
2022/02/20 00:52:43;;;;;;;0.50;0.40;;;6.10;99.90;;;;;;5003843;28;20262;-77
2022/02/20 00:55:11;;;;;;;0.50;0.40;;;6.10;99.90;;;;;;5004626;28;20705;-77
2022/02/20 00:57:38;;;;;;;1.90;1.38;;;6.00;99.90;;;;;;5004183;28;20213;-78
2022/02/20 01:00:07;;;;;;;1.70;1.20;;;6.00;99.90;;;;;;5002694;28;20201;-79
2022/02/20 01:02:34;;;;;;;0.50;0.40;;;5.90;99.90;;;;;;5003777;28;20200;-76
2022/02/20 01:05:00;;;;;;;8.32;1.00;;;5.90;99.90;;;;;;5003681;28;20255;-78
2022/02/20 01:07:27;;;;;;;0.75;0.60;;;5.80;99.90;;;;;;5003403;28;20629;-75
2022/02/20 01:09:54;;;;;;;4.60;1.15;;;5.80;99.90;;;;;;5003022;28;20247;-77
2022/02/20 01:12:22;;;;;;;3.28;0.70;;;5.80;99.90;;;;;;5002504;28;20295;-78
2022/02/20 01:14:50;;;;;;;0.60;0.50;;;5.70;99.90;;;;;;5002124;28;20192;-78
2022/02/20 01:17:16;;;;;;;0.77;0.63;;;5.60;99.90;;;;;;5002361;28;20306;-78
2022/02/20 01:19:44;;;;;;;8.65;0.60;;;5.60;99.90;;;;;;4994931;28;20201;-78
2022/02/20 01:22:11;;;;;;;0.50;0.40;;;5.50;99.90;;;;;;4994904;28;20193;-78
2022/02/20 01:24:38;;;;;;;0.88;0.88;;;5.50;99.90;;;;;;4995288;28;20197;-76
2022/02/20 01:27:05;;;;;;;2.25;2.05;;;5.50;99.90;;;;;;4994404;28;20223;-78
2022/02/20 01:29:33;;;;;;;1.13;0.88;;;5.40;99.90;;;;;;4993923;28;20220;-77
2022/02/20 01:31:59;;;;;;;0.50;0.40;;;5.40;99.90;;;;;;4994355;28;20207;-78
2022/02/20 01:34:26;;;;;;;0.50;0.40;;;5.40;99.90;;;;;;4995076;28;20213;-80
2022/02/20 01:36:53;;;;;;;0.60;0.52;;;5.40;99.90;;;;;;4996250;28;20626;-78
2022/02/20 01:39:20;;;;;;;0.50;0.40;;;5.40;99.90;;;;;;4995728;28;20557;-78
2022/02/20 01:41:46;;;;;;;1.60;0.57;;;5.40;99.90;;;;;;4994424;28;20240;-79
2022/02/20 01:44:13;;;;;;;0.50;0.40;;;5.40;99.90;;;;;;4994632;28;20200;-78
2022/02/20 01:46:44;;;;;;;0.73;0.73;;;5.40;99.90;;;;;;4995415;28;20196;-77
2022/02/20 01:49:13;;;;;;;0.93;0.80;;;5.40;99.90;;;;;;4995095;28;20259;-78
2022/02/20 01:51:39;;;;;;;1.90;1.13;;;5.40;99.90;;;;;;4996293;28;20745;-79
2022/02/20 01:54:06;;;;;;;0.50;0.40;;;5.40;99.90;;;;;;4995248;28;20577;-78
2022/02/20 01:56:34;;;;;;;0.50;0.40;;;5.40;99.90;;;;;;4995866;28;20732;-78
2022/02/20 01:59:01;;;;;;;1.08;0.98;;;5.40;99.90;;;;;;4997354;28;20193;-79
2022/02/20 02:01:28;;;;;;;0.60;0.60;;;5.40;99.90;;;;;;4998938;28;20254;-79
2022/02/20 02:03:56;;;;;;;0.50;0.40;;;5.40;99.90;;;;;;4997975;28;20266;-78
2022/02/20 02:06:22;;;;;;;0.50;0.40;;;5.40;99.90;;;;;;4997461;28;20532;-79
2022/02/20 02:08:49;;;;;;;0.50;0.40;;;5.40;99.90;;;;;;4997553;28;20224;-78
2022/02/20 02:11:17;;;;;;;0.60;0.50;;;5.40;99.90;;;;;;4996975;28;20196;-79
2022/02/20 02:13:43;;;;;;;0.50;0.40;;;5.40;99.90;;;;;;4996187;28;20826;-78
2022/02/20 02:16:12;;;;;;;0.82;0.82;;;5.40;99.90;;;;;;4995398;28;20204;-79
2022/02/20 02:18:40;;;;;;;0.50;0.50;;;5.40;99.90;;;;;;4995765;28;20220;-79
2022/02/20 02:21:08;;;;;;;1.17;0.70;;;5.40;99.90;;;;;;4995748;28;20234;-79
2022/02/20 02:23:36;;;;;;;1.92;0.60;;;5.40;99.90;;;;;;4995388;28;20686;-78
2022/02/20 02:26:06;;;;;;;0.50;0.40;;;5.40;99.90;;;;;;4995236;28;20197;-78
2022/02/20 02:28:34;;;;;;;0.90;0.77;;;5.40;99.90;;;;;;4994873;28;20265;-78
2022/02/20 02:31:01;;;;;;;0.60;0.50;;;5.50;99.90;;;;;;4995299;28;20203;-79
2022/02/20 02:33:29;;;;;;;1.15;0.93;;;5.50;99.90;;;;;;4994136;28;20203;-79
2022/02/20 02:35:56;;;;;;;0.60;0.60;;;5.40;99.90;;;;;;4994977;28;20254;-79
2022/02/20 02:38:26;;;;;;;0.50;0.50;;;5.40;99.90;;;;;;4995113;28;20223;-78
2022/02/20 02:40:55;;;;;;;0.50;0.40;;;5.40;99.90;;;;;;4997025;28;20196;-79
2022/02/20 02:43:22;;;;;;;1.55;1.27;;;5.40;99.90;;;;;;4997355;28;20284;-79
2022/02/20 02:45:49;;;;;;;0.50;0.40;;;5.40;99.90;;;;;;4996987;28;20196;-77
2022/02/20 02:48:16;;;;;;;0.50;0.50;;;5.40;99.90;;;;;;4997054;28;20228;-78
2022/02/20 02:50:43;;;;;;;0.60;0.50;;;5.40;99.90;;;;;;4997116;28;20200;-78
2022/02/20 02:53:10;;;;;;;0.50;0.40;;;5.30;99.90;;;;;;4997230;28;20196;-79
2022/02/20 02:55:36;;;;;;;0.50;0.40;;;5.30;99.90;;;;;;4997146;28;20208;-77
2022/02/20 02:58:04;;;;;;;0.50;0.40;;;5.30;99.90;;;;;;4997035;28;20217;-78
2022/02/20 03:00:33;;;;;;;0.70;0.60;;;5.30;99.90;;;;;;4995984;28;20622;-76
2022/02/20 03:03:00;;;;;;;4.65;1.15;;;5.30;99.90;;;;;;4997228;28;20208;-78
2022/02/20 03:05:27;;;;;;;0.50;0.40;;;5.20;99.90;;;;;;4996991;28;20276;-78
2022/02/20 03:07:54;;;;;;;3.63;0.98;;;5.20;99.90;;;;;;4996262;28;20239;-78
2022/02/20 03:10:21;;;;;;;0.50;0.40;;;5.20;99.90;;;;;;4997079;28;20210;-79
2022/02/20 03:12:47;;;;;;;0.50;0.40;;;5.20;99.90;;;;;;4997041;28;20205;-77
2022/02/20 03:15:15;;;;;;;0.50;0.40;;;5.30;99.90;;;;;;4996626;28;20248;-78
2022/02/20 03:17:42;;;;;;;7.63;0.82;;;5.30;99.90;;;;;;4996690;28;20223;-78
2022/02/20 03:20:10;;;;;;;0.50;0.40;;;5.30;99.90;;;;;;4996351;28;20252;-78
2022/02/20 03:22:36;;;;;;;0.80;0.80;;;5.40;99.90;;;;;;4996466;28;20203;-77
2022/02/20 03:25:04;;;;;;;0.50;0.40;;;5.30;99.90;;;;;;4996264;28;20721;-78
2022/02/20 03:27:30;;;;;;;0.70;0.50;;;5.30;99.90;;;;;;4996419;28;20231;-77
2022/02/20 03:29:57;;;;;;;0.50;0.40;;;5.20;99.90;;;;;;4995740;28;20724;-78
2022/02/20 03:32:25;;;;;;;0.50;0.40;;;5.30;99.90;;;;;;4996293;28;20200;-77
2022/02/20 03:34:52;;;;;;;0.60;0.52;;;5.30;99.90;;;;;;4996488;28;20192;-78
2022/02/20 03:37:19;;;;;;;0.50;0.40;;;5.30;99.90;;;;;;4995693;28;20224;-79
2022/02/20 03:39:46;;;;;;;0.60;0.60;;;5.30;99.90;;;;;;4995723;28;20197;-78
2022/02/20 03:42:12;;;;;;;0.93;0.82;;;5.20;99.90;;;;;;4995735;28;20255;-78
2022/02/20 03:44:39;;;;;;;1.08;1.08;;;5.20;99.90;;;;;;4996413;28;20222;-76
2022/02/20 03:47:06;;;;;;;0.50;0.45;;;5.20;99.90;;;;;;4995956;28;20307;-78
2022/02/20 03:49:34;;;;;;;1.45;0.75;;;5.30;99.90;;;;;;4995776;28;20243;-77
2022/02/20 03:52:00;;;;;;;0.80;0.80;;;5.30;99.90;;;;;;4994570;28;20196;-79
2022/02/20 03:54:27;;;;;;;0.50;0.40;;;5.30;99.90;;;;;;4995979;28;20200;-78
2022/02/20 03:56:54;;;;;;;0.50;0.40;;;5.30;99.90;;;;;;4995823;28;20217;-79
2022/02/20 03:59:20;;;;;;;1.05;0.95;;;5.20;99.90;;;;;;4995575;28;20204;-78
2022/02/20 04:01:47;;;;;;;1.02;0.77;;;5.20;99.90;;;;;;4994679;28;20666;-78
2022/02/20 04:04:14;;;;;;;0.50;0.40;;;5.20;99.90;;;;;;4995672;28;20201;-78
2022/02/20 04:06:42;;;;;;;0.75;0.75;;;5.20;99.90;;;;;;4995640;28;20197;-79
2022/02/20 04:09:08;;;;;;;1.95;0.70;;;5.20;99.90;;;;;;4995075;28;20217;-78
2022/02/20 04:11:35;;;;;;;0.52;0.45;;;5.20;99.90;;;;;;4995425;28;20214;-77
2022/02/20 04:14:02;;;;;;;0.50;0.40;;;5.20;99.90;;;;;;4995570;28;20263;-78
2022/02/20 04:16:29;;;;;;;0.50;0.40;;;5.20;99.90;;;;;;4995697;28;20204;-77
2022/02/20 04:18:55;;;;;;;1.90;0.60;;;5.20;99.90;;;;;;4994472;28;20610;-78
2022/02/20 04:21:22;;;;;;;0.50;0.40;;;5.20;99.90;;;;;;4995551;28;20192;-78
2022/02/20 04:23:50;;;;;;;0.85;0.85;;;5.10;99.90;;;;;;4995580;28;20205;-78
2022/02/20 04:26:17;;;;;;;0.50;0.40;;;5.10;99.90;;;;;;4995176;28;20204;-78
2022/02/20 04:28:43;;;;;;;0.50;0.40;;;5.10;99.90;;;;;;4995059;28;20586;-79
2022/02/20 04:31:10;;;;;;;0.50;0.40;;;5.10;99.90;;;;;;4995339;28;20675;-79
2022/02/20 04:33:37;;;;;;;0.50;0.40;;;5.00;99.90;;;;;;4994794;28;20713;-74
2022/02/20 04:36:04;;;;;;;0.50;0.40;;;5.00;99.90;;;;;;4996098;28;20209;-79
2022/02/20 04:38:31;;;;;;;0.60;0.60;;;5.00;99.90;;;;;;4996242;28;20224;-75
2022/02/20 04:40:59;;;;;;;0.60;0.60;;;4.90;99.90;;;;;;4995507;28;20606;-78
2022/02/20 04:43:25;;;;;;;0.50;0.40;;;4.90;99.90;;;;;;4994798;28;20263;-79
2022/02/20 04:45:52;;;;;;;0.50;0.40;;;4.90;99.90;;;;;;4994483;28;20196;-77
2022/02/20 04:48:19;;;;;;;2.15;1.20;;;4.80;99.90;;;;;;4994375;28;20290;-79
2022/02/20 04:50:46;;;;;;;1.83;0.93;;;4.80;99.90;;;;;;4994029;28;20223;-78
2022/02/20 04:53:13;;;;;;;0.60;0.60;;;4.80;99.90;;;;;;4994797;28;20204;-77
2022/02/20 04:55:39;;;;;;;0.60;0.40;;;4.80;99.90;;;;;;4994530;28;20206;-75
2022/02/20 04:58:08;;;;;;;0.50;0.40;;;4.70;99.90;;;;;;4994466;28;20253;-78
2022/02/20 05:00:35;;;;;;;0.50;0.40;;;4.70;99.90;;;;;;4993128;28;20193;-77
2022/02/20 05:03:03;;;;;;;0.50;0.40;;;4.70;99.90;;;;;;4994250;28;20208;-78
2022/02/20 05:05:29;;;;;;;0.50;0.40;;;4.80;99.90;;;;;;4994429;28;20215;-78
2022/02/20 05:07:56;;;;;;;0.50;0.40;;;4.80;99.90;;;;;;4994233;28;20275;-79
2022/02/20 05:10:22;;;;;;;0.50;0.40;;;4.80;99.90;;;;;;4994036;28;20274;-78
2022/02/20 05:12:49;;;;;;;2.67;2.45;;;4.80;99.90;;;;;;4994187;28;20243;-78
2022/02/20 05:15:17;;;;;;;0.90;0.90;;;4.80;99.90;;;;;;4994400;28;20208;-78
2022/02/20 05:17:44;;;;;;;0.50;0.40;;;4.80;99.90;;;;;;4994315;28;20271;-78
2022/02/20 05:20:11;;;;;;;0.90;0.55;;;4.90;99.90;;;;;;4993969;28;20192;-77
2022/02/20 05:22:38;;;;;;;0.60;0.60;;;4.90;99.90;;;;;;4993709;28;20621;-78
2022/02/20 05:25:06;;;;;;;0.50;0.40;;;4.90;99.90;;;;;;4994323;28;20464;-78
2022/02/20 05:27:33;;;;;;;0.50;0.50;;;4.90;99.90;;;;;;4993610;28;20279;-77
2022/02/20 05:30:00;;;;;;;0.52;0.52;;;4.90;99.90;;;;;;4993559;28;20219;-78
2022/02/20 05:32:28;;;;;;;0.50;0.40;;;4.80;99.90;;;;;;4994020;28;20259;-78
2022/02/20 05:34:56;;;;;;;1.33;1.23;;;4.80;99.90;;;;;;4994255;28;20196;-79
2022/02/20 05:37:23;;;;;;;1.15;1.13;;;4.80;99.90;;;;;;4993715;28;20236;-79
2022/02/20 05:39:50;;;;;;;0.50;0.40;;;4.80;99.90;;;;;;4994389;28;20251;-78
2022/02/20 05:42:17;;;;;;;1.42;1.35;;;4.70;99.90;;;;;;4993407;28;20613;-78
2022/02/20 05:44:43;;;;;;;1.02;1.02;;;4.80;99.90;;;;;;4995331;28;20200;-78
2022/02/20 05:47:10;;;;;;;3.65;0.50;;;4.70;99.90;;;;;;4996490;28;20657;-79
2022/02/20 05:49:38;;;;;;;0.50;0.40;;;4.80;99.90;;;;;;4995562;28;20216;-78
2022/02/20 05:52:05;;;;;;;0.80;0.80;;;4.70;99.90;;;;;;4995489;28;20674;-79
2022/02/20 05:54:32;;;;;;;0.90;0.70;;;4.70;99.90;;;;;;4995650;28;20207;-77
2022/02/20 05:57:00;;;;;;;1.55;0.68;;;4.70;99.90;;;;;;4996293;28;20275;-79
2022/02/20 05:59:26;;;;;;;0.50;0.40;;;4.70;99.90;;;;;;4995238;28;20544;-79
2022/02/20 06:01:53;;;;;;;0.60;0.50;;;4.70;99.90;;;;;;4993895;28;20200;-78
2022/02/20 06:04:20;;;;;;;0.50;0.40;;;4.60;99.90;;;;;;4993307;28;20275;-78
2022/02/20 06:06:48;;;;;;;0.70;0.60;;;4.60;99.90;;;;;;4993150;28;20252;-78
2022/02/20 06:09:14;;;;;;;0.50;0.50;;;4.60;99.90;;;;;;4993091;28;20220;-78
2022/02/20 06:11:41;;;;;;;1.40;0.85;;;4.50;99.90;;;;;;4992853;28;20263;-79
2022/02/20 06:14:08;;;;;;;1.33;1.13;;;4.50;99.90;;;;;;4992751;28;20278;-78
2022/02/20 06:16:34;;;;;;;2.08;1.02;;;4.40;99.90;;;;;;4992857;28;20251;-79
2022/02/20 06:19:02;;;;;;;0.95;0.95;;;4.40;99.90;;;;;;4992823;28;20671;-78
2022/02/20 06:21:28;;;;;;;0.70;0.70;;;4.40;99.90;;;;;;4994197;28;20203;-78
2022/02/20 06:23:56;;;;;;;0.88;0.88;;;4.30;99.90;;;;;;4994880;28;20200;-78
2022/02/20 06:26:23;;;;;;;0.88;0.88;;;4.30;99.90;;;;;;4993654;28;20203;-79
2022/02/20 06:28:50;;;;;;;1.35;1.25;;;4.30;99.90;;;;;;4992947;28;20223;-78
2022/02/20 06:31:16;;;;;;;1.45;1.35;;;4.40;99.90;;;;;;4993292;28;20196;-78
2022/02/20 06:33:47;;;;;;;0.60;0.50;;;4.40;99.90;;;;;;4995221;28;20625;-78
2022/02/20 06:36:14;;;;;;;2.17;1.75;;;4.40;99.90;;;;;;4995072;28;20288;-79
2022/02/20 06:38:40;;;;;;;4.28;1.52;;;4.50;99.90;;;;;;4994299;28;20229;-78
2022/02/20 06:41:09;;;;;;;6.22;2.47;;;4.50;99.90;;;;;;4995919;28;20567;-80
2022/02/20 06:43:36;;;;;;;3.15;1.08;;;4.50;99.90;;;;;;4994169;28;20287;-81
2022/02/20 06:46:03;;;;;;;0.93;0.70;;;4.50;99.90;;;;;;4992525;28;20255;-78
2022/02/20 06:48:30;;;;;;;11.45;2.47;;;4.60;99.90;;;;;;4992847;28;20217;-78
2022/02/20 06:50:56;;;;;;;2.50;2.30;;;4.60;99.90;;;;;;4993922;28;20603;-80
2022/02/20 06:53:23;;;;;;;0.50;0.40;;;4.60;99.90;;;;;;4992874;28;20666;-80
2022/02/20 06:55:50;;;;;;;0.70;0.60;;;4.70;99.90;;;;;;4993670;28;20258;-80
2022/02/20 06:58:18;;;;;;;4.93;1.88;;;4.70;99.90;;;;;;4993423;28;20217;-79
2022/02/20 07:00:45;;;;;;;0.70;0.52;;;4.80;99.90;;;;;;4992671;28;20670;-80
2022/02/20 07:03:11;;;;;;;8.48;3.40;;;4.80;99.90;;;;;;4993432;28;20201;-79
2022/02/20 07:05:40;;;;;;;1.20;1.10;;;4.90;99.90;;;;;;4993542;28;20201;-79
2022/02/20 07:08:06;;;;;;;1.25;1.25;;;4.90;99.90;;;;;;4993335;28;20248;-80
2022/02/20 07:10:33;;;;;;;1.98;1.88;;;5.00;99.90;;;;;;4993028;28;20240;-79
2022/02/20 07:13:00;;;;;;;4.53;2.38;;;5.10;99.90;;;;;;4994185;28;20204;-78
2022/02/20 07:15:28;;;;;;;1.08;0.70;;;5.10;99.90;;;;;;4994166;28;20215;-79
2022/02/20 07:17:57;;;;;;;8.93;2.35;;;5.20;99.90;;;;;;4994262;28;20217;-79
2022/02/20 07:20:24;;;;;;;2.25;1.45;;;5.30;99.90;;;;;;4993759;28;20193;-79
2022/02/20 07:22:51;;;;;;;1.77;1.35;;;5.30;99.90;;;;;;4993068;28;20674;-81
2022/02/20 07:25:19;;;;;;;0.65;0.65;;;5.40;99.90;;;;;;4993990;28;20200;-79
2022/02/20 07:27:53;;;;;;;0.73;0.68;;;5.40;99.90;;;;;;4995909;28;20222;-80
2022/02/20 07:30:20;;;;;;;4.32;1.90;;;5.40;99.90;;;;;;4996826;28;20216;-80
2022/02/20 07:32:49;;;;;;;6.07;1.80;;;5.50;99.90;;;;;;4997291;28;20200;-79
2022/02/20 07:35:17;;;;;;;2.03;1.48;;;5.50;99.90;;;;;;4996599;28;20205;-79
2022/02/20 07:37:43;;;;;;;5.60;1.77;;;5.60;99.90;;;;;;4996704;28;20610;-79
2022/02/20 07:40:11;;;;;;;4.93;2.13;;;5.70;99.90;;;;;;4997086;28;20197;-78
2022/02/20 07:42:38;;;;;;;1.52;0.85;;;5.70;99.90;;;;;;4997633;28;20239;-78
2022/02/20 07:45:05;;;;;;;2.63;1.77;;;5.80;99.90;;;;;;4996215;28;20682;-79
2022/02/20 07:47:32;;;;;;;7.22;2.55;;;5.80;99.90;;;;;;4996292;28;20706;-78
2022/02/20 07:50:00;;;;;;;11.10;2.00;;;5.90;99.90;;;;;;4996142;28;20216;-79
2022/02/20 07:52:28;;;;;;;2.92;1.60;;;6.00;99.90;;;;;;4995894;28;20201;-79
2022/02/20 07:54:55;;;;;;;3.50;1.73;;;6.00;99.90;;;;;;4996624;28;20205;-78
2022/02/20 07:57:22;;;;;;;1.45;0.85;;;6.10;99.90;;;;;;4996456;28;20245;-78
2022/02/20 07:59:48;;;;;;;0.50;0.50;;;6.10;99.90;;;;;;4995701;28;20193;-79
2022/02/20 08:02:15;;;;;;;29.00;1.65;;;6.20;99.90;;;;;;4996494;28;20204;-79
2022/02/20 08:04:42;;;;;;;6.25;1.52;;;6.20;99.90;;;;;;4996367;28;20197;-78
2022/02/20 08:07:10;;;;;;;2.80;2.25;;;6.30;99.90;;;;;;4996284;28;20220;-79
2022/02/20 08:09:36;;;;;;;4.53;0.90;;;6.30;99.90;;;;;;4996009;28;20607;-78
2022/02/20 08:12:04;;;;;;;7.43;1.30;;;6.40;99.90;;;;;;4996225;28;20204;-79
2022/02/20 08:14:30;;;;;;;6.80;2.38;;;6.40;99.90;;;;;;4996627;28;20202;-79
2022/02/20 08:16:58;;;;;;;1.25;0.57;;;6.50;99.90;;;;;;4996092;28;20263;-80
2022/02/20 08:19:24;;;;;;;1.67;1.58;;;6.50;99.90;;;;;;4996315;28;20200;-79
2022/02/20 08:21:51;;;;;;;1.10;0.80;;;6.60;99.90;;;;;;4995689;28;20271;-79
2022/02/20 08:24:19;;;;;;;3.28;1.40;;;6.70;99.90;;;;;;4995978;28;20667;-79
2022/02/20 08:26:46;;;;;;;7.18;1.30;;;6.70;99.90;;;;;;4996496;28;20700;-79
2022/02/20 08:29:12;;;;;;;0.82;0.82;;;6.80;99.90;;;;;;4996297;28;20280;-81
2022/02/20 08:31:39;;;;;;;2.45;2.25;;;6.90;99.90;;;;;;4996178;28;20282;-78
2022/02/20 08:34:06;;;;;;;14.63;1.48;;;7.00;99.90;;;;;;4995547;28;20197;-78
2022/02/20 08:36:33;;;;;;;1.25;0.80;;;7.10;99.90;;;;;;4995473;28;20625;-78
2022/02/20 08:38:59;;;;;;;3.90;1.00;;;7.10;99.90;;;;;;4994806;28;20575;-79
2022/02/20 08:41:27;;;;;;;1.25;1.15;;;7.20;99.90;;;;;;4995361;28;20197;-80
2022/02/20 08:43:54;;;;;;;6.63;0.98;;;7.30;99.90;;;;;;4994864;28;20273;-79
2022/02/20 08:46:21;;;;;;;3.20;1.80;;;7.30;99.90;;;;;;4995156;28;20206;-79
2022/02/20 08:48:48;;;;;;;4.55;1.90;;;7.40;99.90;;;;;;4995272;28;20236;-76
2022/02/20 08:51:15;;;;;;;4.63;1.23;;;7.40;99.90;;;;;;4995315;28;20220;-79
2022/02/20 08:53:42;;;;;;;0.90;0.90;;;7.50;99.90;;;;;;4994532;28;20199;-77
2022/02/20 08:56:09;;;;;;;1.20;1.10;;;7.50;99.90;;;;;;4994386;28;20215;-79
2022/02/20 08:58:37;;;;;;;9.98;1.95;;;7.60;99.90;;;;;;4994413;28;20733;-78
2022/02/20 09:01:04;;;;;;;7.53;1.60;;;7.60;99.90;;;;;;4993748;28;20197;-78
2022/02/20 09:03:32;;;;;;;2.05;1.85;;;7.60;99.90;;;;;;4994254;28;20201;-79
2022/02/20 09:05:58;;;;;;;2.35;1.65;;;7.70;99.90;;;;;;4994366;28;20706;-78
2022/02/20 09:08:25;;;;;;;3.45;2.10;;;7.70;99.90;;;;;;4994147;28;20268;-78
2022/02/20 09:10:52;;;;;;;2.40;2.30;;;7.70;99.90;;;;;;4994237;28;20228;-79
2022/02/20 09:13:18;;;;;;;11.18;1.77;;;7.80;99.90;;;;;;4994542;28;20207;-79
2022/02/20 09:15:46;;;;;;;1.67;1.08;;;7.80;99.90;;;;;;4994255;28;20248;-79
2022/02/20 09:18:13;;;;;;;1.15;0.52;;;7.80;99.90;;;;;;4994174;28;20758;-78
2022/02/20 09:20:40;;;;;;;3.90;2.25;;;7.90;99.90;;;;;;4993412;28;20189;-77
2022/02/20 09:23:06;;;;;;;1.35;1.25;;;7.90;99.90;;;;;;4993429;28;20192;-78
2022/02/20 09:25:33;;;;;;;1.67;0.80;;;8.00;99.90;;;;;;4994098;28;20198;-78
2022/02/20 09:28:00;;;;;;;1.60;0.82;;;7.90;99.90;;;;;;4993282;28;20219;-78
2022/02/20 09:30:26;;;;;;;5.55;1.25;;;8.00;99.90;;;;;;4993113;28;20704;-77
2022/02/20 09:32:55;;;;;;;3.42;1.40;;;8.00;99.90;;;;;;4993395;28;20277;-78
2022/02/20 09:35:23;;;;;;;1.33;1.17;;;8.00;99.90;;;;;;4993529;28;20205;-78
2022/02/20 09:37:49;;;;;;;1.45;1.33;;;8.00;99.90;;;;;;4993215;28;20751;-78
2022/02/20 09:40:16;;;;;;;2.30;2.10;;;8.00;99.90;;;;;;4993155;28;20202;-78
2022/02/20 09:42:43;;;;;;;1.38;0.82;;;8.00;99.90;;;;;;4993807;28;20208;-78
2022/02/20 09:45:10;;;;;;;1.50;1.40;;;8.10;99.90;;;;;;4993539;28;20201;-79
2022/02/20 09:47:39;;;;;;;0.60;0.60;;;8.10;99.90;;;;;;4993822;28;20602;-79
2022/02/20 09:50:08;;;;;;;3.42;2.45;;;8.10;99.90;;;;;;4992872;28;20574;-78
2022/02/20 09:52:35;;;;;;;0.80;0.80;;;8.10;99.90;;;;;;4993920;28;20669;-79
2022/02/20 09:55:02;;;;;;;0.80;0.75;;;8.10;99.90;;;;;;4993968;28;20256;-77
2022/02/20 09:57:28;;;;;;;5.70;3.05;;;8.10;99.90;;;;;;4994300;28;20222;-78
2022/02/20 09:59:55;;;;;;;2.38;2.05;;;8.10;99.90;;;;;;4992575;28;20200;-77
2022/02/20 10:02:25;;;;;;;3.63;2.90;;;8.10;99.90;;;;;;4992584;28;20675;-78
2022/02/20 10:04:53;;;;;;;2.08;1.80;;;8.10;99.90;;;;;;4993190;28;20292;-78
2022/02/20 10:07:29;;;;;;;1.90;1.80;;;8.20;99.90;;;;;;4993522;28;20277;-77
2022/02/20 10:09:57;;;;;;;1.17;1.08;;;8.20;99.90;;;;;;4992459;28;20685;-78
2022/02/20 10:12:25;;;;;;;8.68;1.10;;;8.20;99.90;;;;;;4992547;28;20672;-77
2022/02/20 10:14:52;;;;;;;1.60;1.08;;;8.20;99.90;;;;;;4993265;28;20199;-78
2022/02/20 10:17:21;;;;;;;1.45;1.35;;;8.30;99.90;;;;;;4993365;28;20787;-77
2022/02/20 10:19:56;;;;;;;14.68;1.98;;;8.30;99.90;;;;;;4993177;28;20253;-78
2022/02/20 10:22:36;;;;;;;1.05;0.88;;;8.30;99.90;;;;;;4992949;28;20198;-77
2022/02/20 10:25:08;;;;;;;3.67;1.60;;;8.40;99.90;;;;;;4992893;28;20193;-78
2022/02/20 10:27:36;;;;;;;1.95;1.63;;;8.40;99.90;;;;;;4992729;28;20222;-78
2022/02/20 10:30:19;;;;;;;7.22;2.25;;;8.40;99.90;;;;;;4992899;28;20609;-78
2022/02/20 10:32:52;;;;;;;3.50;1.55;;;8.50;99.90;;;;;;4991949;28;20199;-78
2022/02/20 10:35:19;;;;;;;0.75;0.65;;;8.50;99.90;;;;;;4992810;28;20198;-78
2022/02/20 10:37:47;;;;;;;5.20;1.20;;;8.50;99.90;;;;;;4991853;28;20254;-78
2022/02/20 10:40:29;;;;;;;11.60;1.15;;;8.50;99.90;;;;;;4993023;28;20273;-78
2022/02/20 10:42:57;;;;;;;1.50;1.00;;;8.60;99.90;;;;;;4992577;28;20202;-77
2022/02/20 10:45:30;;;;;;;0.88;0.75;;;8.70;99.90;;;;;;4993024;28;20202;-79
2022/02/20 10:47:57;;;;;;;1.23;0.90;;;8.70;99.90;;;;;;4993527;28;20266;-78
2022/02/20 10:50:25;;;;;;;2.28;1.48;;;8.70;99.90;;;;;;4992870;28;20206;-78
2022/02/20 10:53:15;;;;;;;0.85;0.85;;;8.80;99.90;;;;;;4993493;28;20633;-78
2022/02/20 10:55:44;;;;;;;4.15;1.15;;;8.80;99.90;;;;;;4993834;28;20223;-78
2022/02/20 10:58:16;;;;;;;3.30;2.28;;;8.90;99.90;;;;;;4993476;28;20618;-78
2022/02/20 11:00:51;;;;;;;1.55;1.45;;;8.90;99.90;;;;;;4992786;28;20206;-78
2022/02/20 11:03:19;;;;;;;9.98;1.85;;;9.00;99.90;;;;;;4997562;28;20658;-79
2022/02/20 11:05:47;;;;;;;1.33;1.23;;;9.00;99.90;;;;;;4997254;28;20202;-78
2022/02/20 11:08:16;;;;;;;0.50;0.50;;;9.00;99.90;;;;;;4997061;28;20231;-78
2022/02/20 11:10:44;;;;;;;2.60;1.00;;;9.10;99.90;;;;;;4996686;28;20224;-78
2022/02/20 11:13:13;;;;;;;2.55;0.73;;;9.10;99.90;;;;;;4996823;28;20268;-78
2022/02/20 11:15:40;;;;;;;2.22;1.65;;;9.10;99.90;;;;;;4995897;28;20211;-77
2022/02/20 11:18:09;;;;;;;9.30;2.40;;;9.10;99.90;;;;;;4997308;28;20220;-77
2022/02/20 11:20:40;;;;;;;0.70;0.43;;;9.20;99.90;;;;;;4995929;28;20283;-74
2022/02/20 11:23:08;;;;;;;6.15;1.75;;;9.20;99.90;;;;;;4996078;28;20242;-78
2022/02/20 11:25:38;;;;;;;1.50;1.38;;;9.20;99.90;;;;;;4995809;28;20204;-77
2022/02/20 11:28:06;;;;;;;1.70;1.52;;;9.20;99.90;;;;;;4996114;28;20306;-78
2022/02/20 11:30:34;;;;;;;2.10;1.58;;;9.20;99.90;;;;;;4994932;28;20286;-78
2022/02/20 11:33:03;;;;;;;1.30;0.65;;;9.20;99.90;;;;;;4996059;28;20294;-77
2022/02/20 11:35:31;;;;;;;2.25;1.85;;;9.30;99.90;;;;;;4995825;28;20748;-78
2022/02/20 11:38:04;;;;;;;0.90;0.82;;;9.30;99.90;;;;;;4995415;28;20250;-78
2022/02/20 11:40:49;;;;;;;1.73;0.77;;;9.30;99.90;;;;;;4997562;28;20192;-78
2022/02/20 11:43:17;;;;;;;1.77;1.13;;;9.30;99.90;;;;;;4997095;28;20184;-78
2022/02/20 11:46:06;;;;;;;0.40;0.30;;;9.30;99.90;;;;;;4996973;28;20669;-73
2022/02/20 11:48:33;;;;;;;12.15;2.00;;;9.30;99.90;;;;;;4996833;28;20695;-74
2022/02/20 11:51:15;;;;;;;5.28;1.60;;;9.30;99.90;;;;;;4996338;28;20223;-77
2022/02/20 11:53:42;;;;;;;0.95;0.57;;;9.20;99.90;;;;;;4996026;28;20189;-75
2022/02/20 11:56:12;;;;;;;3.30;1.40;;;9.20;99.90;;;;;;4995631;28;20618;-78
2022/02/20 11:58:42;;;;;;;4.80;2.28;;;9.10;99.90;;;;;;4995010;28;20315;-77
2022/02/20 12:01:14;;;;;;;1.15;1.05;;;9.10;99.90;;;;;;4994855;28;20590;-77
2022/02/20 12:04:04;;;;;;;1.40;1.30;;;9.20;99.90;;;;;;4996684;28;20199;-74
2022/02/20 12:06:34;;;;;;;1.67;0.90;;;9.20;99.90;;;;;;4996219;28;20218;-76
2022/02/20 12:09:01;;;;;;;1.60;1.52;;;9.20;99.90;;;;;;4995451;28;20710;-79
2022/02/20 12:11:32;;;;;;;2.17;1.98;;;9.30;99.90;;;;;;4996510;28;20246;-79
2022/02/20 12:14:01;;;;;;;2.20;1.30;;;9.30;99.90;;;;;;4995151;28;20250;-77
2022/02/20 12:16:31;;;;;;;5.10;1.58;;;9.30;99.90;;;;;;4996345;28;20203;-79
2022/02/20 12:19:23;;;;;;;0.50;0.50;;;9.30;99.90;;;;;;4996261;28;20287;-77
2022/02/20 12:22:08;;;;;;;2.72;1.35;;;9.30;99.90;;;;;;4996520;28;20239;-78
2022/02/20 12:24:45;;;;;;;2.83;2.65;;;9.30;99.90;;;;;;4996613;28;20591;-79
2022/02/20 12:27:20;;;;;;;0.50;0.40;;;9.30;99.90;;;;;;4996168;28;20237;-79
2022/02/20 12:29:51;;;;;;;2.65;0.88;;;9.40;99.90;;;;;;4995803;28;20245;-79
2022/02/20 12:32:24;;;;;;;5.38;3.45;;;9.40;99.90;;;;;;4996269;28;20755;-78
2022/02/20 12:35:01;;;;;;;5.38;1.27;;;9.50;99.90;;;;;;4995864;28;20200;-79
2022/02/20 12:37:30;;;;;;;2.75;1.30;;;9.50;99.90;;;;;;4996420;28;20231;-80
2022/02/20 12:40:00;;;;;;;0.80;0.70;;;9.50;99.90;;;;;;4995244;28;20196;-78
2022/02/20 12:42:29;;;;;;;0.75;0.68;;;9.50;99.90;;;;;;4996011;28;20204;-79
2022/02/20 12:45:06;;;;;;;3.15;0.85;;;9.50;99.90;;;;;;4996477;28;20204;-79
2022/02/20 12:47:34;;;;;;;2.88;1.88;;;9.50;99.90;;;;;;4996339;28;20230;-74
2022/02/20 12:50:01;;;;;;;1.98;1.40;;;9.50;99.90;;;;;;4995397;28;20204;-79
2022/02/20 12:52:33;;;;;;;0.88;0.73;;;9.50;99.90;;;;;;4995887;28;20559;-78
2022/02/20 12:54:59;;;;;;;3.80;1.15;;;9.50;99.90;;;;;;4996113;28;20280;-77
2022/02/20 12:57:27;;;;;;;1.65;0.68;;;9.50;99.90;;;;;;4995783;28;20219;-78
2022/02/20 12:59:59;;;;;;;2.88;1.63;;;9.50;99.90;;;;;;4995359;28;20204;-79
2022/02/20 13:02:35;;;;;;;6.55;1.80;;;9.50;99.90;;;;;;4995629;28;20204;-79